sensor_id;sensor_type;location;lat;lon;timestamp;P1;durP1;ratioP1;P2;durP2;ratioP2
7817;SDS011;3954;52.624;9.212;2023-05-02T00:02:13;7.67;;;4.00;;
7817;SDS011;3954;52.624;9.212;2023-05-02T00:04:39;5.23;;;3.50;;
7817;SDS011;3954;52.624;9.212;2023-05-02T00:07:05;5.30;;;3.60;;
7817;SDS011;3954;52.624;9.212;2023-05-02T00:09:33;4.77;;;3.87;;
7817;SDS011;3954;52.624;9.212;2023-05-02T00:11:59;6.07;;;4.10;;
7817;SDS011;3954;52.624;9.212;2023-05-02T00:14:26;7.23;;;3.97;;
7817;SDS011;3954;52.624;9.212;2023-05-02T00:16:52;5.97;;;4.17;;
7817;SDS011;3954;52.624;9.212;2023-05-02T00:19:18;6.10;;;4.13;;
7817;SDS011;3954;52.624;9.212;2023-05-02T00:21:46;5.37;;;4.50;;
7817;SDS011;3954;52.624;9.212;2023-05-02T00:24:12;5.40;;;4.47;;
7817;SDS011;3954;52.624;9.212;2023-05-02T00:26:40;5.67;;;5.13;;
7817;SDS011;3954;52.624;9.212;2023-05-02T00:29:06;7.67;;;4.83;;
7817;SDS011;3954;52.624;9.212;2023-05-02T00:31:32;8.13;;;6.60;;
7817;SDS011;3954;52.624;9.212;2023-05-02T00:33:59;7.00;;;6.30;;
7817;SDS011;3954;52.624;9.212;2023-05-02T00:36:25;8.07;;;7.00;;
7817;SDS011;3954;52.624;9.212;2023-05-02T00:38:51;6.87;;;6.27;;
7817;SDS011;3954;52.624;9.212;2023-05-02T00:41:17;8.27;;;7.33;;
7817;SDS011;3954;52.624;9.212;2023-05-02T00:43:44;6.30;;;5.70;;
7817;SDS011;3954;52.624;9.212;2023-05-02T00:46:10;9.43;;;7.30;;
7817;SDS011;3954;52.624;9.212;2023-05-02T00:48:36;8.07;;;7.27;;
7817;SDS011;3954;52.624;9.212;2023-05-02T00:51:03;8.93;;;8.03;;
7817;SDS011;3954;52.624;9.212;2023-05-02T00:53:29;8.60;;;7.70;;
7817;SDS011;3954;52.624;9.212;2023-05-02T00:55:56;10.47;;;8.70;;
7817;SDS011;3954;52.624;9.212;2023-05-02T00:58:22;9.33;;;7.93;;
7817;SDS011;3954;52.624;9.212;2023-05-02T01:00:55;10.90;;;9.07;;
7817;SDS011;3954;52.624;9.212;2023-05-02T01:03:26;12.07;;;10.10;;
7817;SDS011;3954;52.624;9.212;2023-05-02T01:05:54;11.43;;;10.20;;
7817;SDS011;3954;52.624;9.212;2023-05-02T01:08:24;10.50;;;9.40;;
7817;SDS011;3954;52.624;9.212;2023-05-02T01:10:55;12.83;;;10.60;;
7817;SDS011;3954;52.624;9.212;2023-05-02T01:13:25;14.10;;;12.03;;
7817;SDS011;3954;52.624;9.212;2023-05-02T01:15:55;12.63;;;11.30;;
7817;SDS011;3954;52.624;9.212;2023-05-02T01:18:22;15.23;;;11.87;;
7817;SDS011;3954;52.624;9.212;2023-05-02T01:20:51;12.33;;;11.03;;
7817;SDS011;3954;52.624;9.212;2023-05-02T01:23:20;12.23;;;10.93;;
7817;SDS011;3954;52.624;9.212;2023-05-02T01:25:58;13.73;;;11.43;;
7817;SDS011;3954;52.624;9.212;2023-05-02T01:28:28;13.00;;;11.60;;
7817;SDS011;3954;52.624;9.212;2023-05-02T01:30:57;12.47;;;11.17;;
7817;SDS011;3954;52.624;9.212;2023-05-02T01:33:24;12.10;;;10.83;;
7817;SDS011;3954;52.624;9.212;2023-05-02T01:35:51;14.20;;;11.70;;
7817;SDS011;3954;52.624;9.212;2023-05-02T01:38:18;14.67;;;10.97;;
7817;SDS011;3954;52.624;9.212;2023-05-02T01:40:45;14.60;;;11.90;;
7817;SDS011;3954;52.624;9.212;2023-05-02T01:43:12;14.37;;;12.03;;
7817;SDS011;3954;52.624;9.212;2023-05-02T01:45:39;14.90;;;13.37;;
7817;SDS011;3954;52.624;9.212;2023-05-02T01:48:07;14.07;;;12.27;;
7817;SDS011;3954;52.624;9.212;2023-05-02T01:50:33;15.40;;;13.07;;
7817;SDS011;3954;52.624;9.212;2023-05-02T01:53:01;14.40;;;12.80;;
7817;SDS011;3954;52.624;9.212;2023-05-02T01:55:28;16.60;;;13.90;;
7817;SDS011;3954;52.624;9.212;2023-05-02T01:57:54;15.00;;;13.50;;
7817;SDS011;3954;52.624;9.212;2023-05-02T02:00:21;14.40;;;12.83;;
7817;SDS011;3954;52.624;9.212;2023-05-02T02:02:48;17.70;;;14.23;;
7817;SDS011;3954;52.624;9.212;2023-05-02T02:05:17;16.47;;;14.23;;
7817;SDS011;3954;52.624;9.212;2023-05-02T02:07:43;16.60;;;14.80;;
7817;SDS011;3954;52.624;9.212;2023-05-02T02:10:09;15.73;;;14.13;;
7817;SDS011;3954;52.624;9.212;2023-05-02T02:12:37;15.37;;;13.77;;
7817;SDS011;3954;52.624;9.212;2023-05-02T02:15:05;15.90;;;14.13;;
7817;SDS011;3954;52.624;9.212;2023-05-02T02:17:35;17.40;;;14.60;;
7817;SDS011;3954;52.624;9.212;2023-05-02T02:20:02;16.57;;;14.70;;
7817;SDS011;3954;52.624;9.212;2023-05-02T02:22:33;18.30;;;15.13;;
7817;SDS011;3954;52.624;9.212;2023-05-02T02:25:00;15.60;;;13.23;;
7817;SDS011;3954;52.624;9.212;2023-05-02T02:27:27;16.07;;;13.57;;
7817;SDS011;3954;52.624;9.212;2023-05-02T02:29:54;19.07;;;14.20;;
7817;SDS011;3954;52.624;9.212;2023-05-02T02:32:20;16.67;;;14.17;;
7817;SDS011;3954;52.624;9.212;2023-05-02T02:34:46;17.60;;;15.07;;
7817;SDS011;3954;52.624;9.212;2023-05-02T02:37:13;16.83;;;14.67;;
7817;SDS011;3954;52.624;9.212;2023-05-02T02:39:43;15.00;;;13.40;;
7817;SDS011;3954;52.624;9.212;2023-05-02T02:42:13;16.07;;;14.10;;
7817;SDS011;3954;52.624;9.212;2023-05-02T02:44:42;15.87;;;13.77;;
7817;SDS011;3954;52.624;9.212;2023-05-02T02:47:14;18.00;;;13.93;;
7817;SDS011;3954;52.624;9.212;2023-05-02T02:49:44;16.77;;;13.70;;
7817;SDS011;3954;52.624;9.212;2023-05-02T02:52:15;16.77;;;13.30;;
7817;SDS011;3954;52.624;9.212;2023-05-02T02:54:44;17.13;;;13.30;;
7817;SDS011;3954;52.624;9.212;2023-05-02T02:57:13;16.13;;;13.13;;
7817;SDS011;3954;52.624;9.212;2023-05-02T02:59:43;14.67;;;12.47;;
7817;SDS011;3954;52.624;9.212;2023-05-02T03:02:11;15.47;;;13.67;;
7817;SDS011;3954;52.624;9.212;2023-05-02T03:04:38;18.03;;;13.70;;
7817;SDS011;3954;52.624;9.212;2023-05-02T03:07:06;15.90;;;12.63;;
7817;SDS011;3954;52.624;9.212;2023-05-02T03:09:41;18.67;;;14.10;;
7817;SDS011;3954;52.624;9.212;2023-05-02T03:12:09;16.87;;;13.37;;
7817;SDS011;3954;52.624;9.212;2023-05-02T03:14:35;15.10;;;13.50;;
7817;SDS011;3954;52.624;9.212;2023-05-02T03:17:01;16.17;;;13.40;;
7817;SDS011;3954;52.624;9.212;2023-05-02T03:19:27;17.63;;;14.07;;
7817;SDS011;3954;52.624;9.212;2023-05-02T03:21:53;18.87;;;15.43;;
7817;SDS011;3954;52.624;9.212;2023-05-02T03:24:20;18.97;;;15.30;;
7817;SDS011;3954;52.624;9.212;2023-05-02T03:26:46;17.77;;;15.27;;
7817;SDS011;3954;52.624;9.212;2023-05-02T03:29:13;19.93;;;15.77;;
7817;SDS011;3954;52.624;9.212;2023-05-02T03:31:39;18.77;;;14.97;;
7817;SDS011;3954;52.624;9.212;2023-05-02T03:34:05;19.17;;;15.77;;
7817;SDS011;3954;52.624;9.212;2023-05-02T03:36:31;19.70;;;16.27;;
7817;SDS011;3954;52.624;9.212;2023-05-02T03:38:57;15.63;;;13.93;;
7817;SDS011;3954;52.624;9.212;2023-05-02T03:41:23;20.20;;;13.50;;
7817;SDS011;3954;52.624;9.212;2023-05-02T03:43:49;17.20;;;13.30;;
7817;SDS011;3954;52.624;9.212;2023-05-02T03:46:17;14.03;;;11.07;;
7817;SDS011;3954;52.624;9.212;2023-05-02T03:48:43;13.10;;;10.10;;
7817;SDS011;3954;52.624;9.212;2023-05-02T03:51:10;14.03;;;10.10;;
7817;SDS011;3954;52.624;9.212;2023-05-02T03:53:36;10.80;;;9.03;;
7817;SDS011;3954;52.624;9.212;2023-05-02T03:56:02;9.57;;;8.07;;
7817;SDS011;3954;52.624;9.212;2023-05-02T03:58:28;10.83;;;8.13;;
7817;SDS011;3954;52.624;9.212;2023-05-02T04:00:54;9.33;;;6.73;;
7817;SDS011;3954;52.624;9.212;2023-05-02T04:03:22;9.67;;;5.87;;
7817;SDS011;3954;52.624;9.212;2023-05-02T04:05:48;6.33;;;4.47;;
7817;SDS011;3954;52.624;9.212;2023-05-02T04:08:15;5.27;;;4.77;;
7817;SDS011;3954;52.624;9.212;2023-05-02T04:10:41;5.17;;;4.03;;
7817;SDS011;3954;52.624;9.212;2023-05-02T04:13:07;3.40;;;3.10;;
7817;SDS011;3954;52.624;9.212;2023-05-02T04:15:33;3.77;;;2.63;;
7817;SDS011;3954;52.624;9.212;2023-05-02T04:17:59;2.57;;;2.37;;
7817;SDS011;3954;52.624;9.212;2023-05-02T04:20:27;2.50;;;2.30;;
7817;SDS011;3954;52.624;9.212;2023-05-02T04:22:53;2.80;;;2.30;;
7817;SDS011;3954;52.624;9.212;2023-05-02T04:25:19;3.57;;;3.00;;
7817;SDS011;3954;52.624;9.212;2023-05-02T04:27:45;7.23;;;2.83;;
7817;SDS011;3954;52.624;9.212;2023-05-02T04:30:11;4.47;;;2.90;;
7817;SDS011;3954;52.624;9.212;2023-05-02T04:32:37;8.27;;;3.43;;
7817;SDS011;3954;52.624;9.212;2023-05-02T04:35:04;8.13;;;3.30;;
7817;SDS011;3954;52.624;9.212;2023-05-02T04:37:31;5.03;;;3.47;;
7817;SDS011;3954;52.624;9.212;2023-05-02T04:39:58;8.07;;;3.40;;
7817;SDS011;3954;52.624;9.212;2023-05-02T04:42:24;6.53;;;3.57;;
7817;SDS011;3954;52.624;9.212;2023-05-02T04:44:50;6.43;;;3.33;;
7817;SDS011;3954;52.624;9.212;2023-05-02T04:47:16;8.17;;;3.90;;
7817;SDS011;3954;52.624;9.212;2023-05-02T04:49:42;9.17;;;3.70;;
7817;SDS011;3954;52.624;9.212;2023-05-02T04:52:08;9.97;;;4.07;;
7817;SDS011;3954;52.624;9.212;2023-05-02T04:54:35;7.87;;;3.20;;
7817;SDS011;3954;52.624;9.212;2023-05-02T04:57:01;11.07;;;4.37;;
7817;SDS011;3954;52.624;9.212;2023-05-02T04:59:30;11.23;;;4.17;;
7817;SDS011;3954;52.624;9.212;2023-05-02T05:01:56;16.27;;;4.80;;
7817;SDS011;3954;52.624;9.212;2023-05-02T05:04:23;10.13;;;4.17;;
7817;SDS011;3954;52.624;9.212;2023-05-02T05:06:49;10.67;;;4.27;;
7817;SDS011;3954;52.624;9.212;2023-05-02T05:09:15;12.83;;;4.57;;
7817;SDS011;3954;52.624;9.212;2023-05-02T05:11:42;12.33;;;4.40;;
7817;SDS011;3954;52.624;9.212;2023-05-02T05:14:10;16.33;;;4.47;;
7817;SDS011;3954;52.624;9.212;2023-05-02T05:16:36;10.53;;;4.57;;
7817;SDS011;3954;52.624;9.212;2023-05-02T05:19:02;12.63;;;4.23;;
7817;SDS011;3954;52.624;9.212;2023-05-02T05:21:29;10.63;;;4.80;;
7817;SDS011;3954;52.624;9.212;2023-05-02T05:23:55;11.27;;;4.40;;
7817;SDS011;3954;52.624;9.212;2023-05-02T05:26:21;14.87;;;4.73;;
7817;SDS011;3954;52.624;9.212;2023-05-02T05:28:50;10.70;;;4.33;;
7817;SDS011;3954;52.624;9.212;2023-05-02T05:31:16;9.80;;;3.60;;
7817;SDS011;3954;52.624;9.212;2023-05-02T05:33:42;12.63;;;4.40;;
7817;SDS011;3954;52.624;9.212;2023-05-02T05:36:09;11.47;;;3.83;;
7817;SDS011;3954;52.624;9.212;2023-05-02T05:38:35;13.57;;;4.37;;
7817;SDS011;3954;52.624;9.212;2023-05-02T05:41:01;9.57;;;4.13;;
7817;SDS011;3954;52.624;9.212;2023-05-02T05:43:27;8.13;;;3.33;;
7817;SDS011;3954;52.624;9.212;2023-05-02T05:45:55;12.37;;;3.80;;
7817;SDS011;3954;52.624;9.212;2023-05-02T05:48:21;15.67;;;4.20;;
7817;SDS011;3954;52.624;9.212;2023-05-02T05:50:47;16.00;;;3.93;;
7817;SDS011;3954;52.624;9.212;2023-05-02T05:53:13;13.77;;;4.33;;
7817;SDS011;3954;52.624;9.212;2023-05-02T05:55:39;10.80;;;4.20;;
7817;SDS011;3954;52.624;9.212;2023-05-02T05:58:06;12.10;;;3.83;;
7817;SDS011;3954;52.624;9.212;2023-05-02T06:00:33;8.73;;;3.97;;
7817;SDS011;3954;52.624;9.212;2023-05-02T06:03:00;14.10;;;4.37;;
7817;SDS011;3954;52.624;9.212;2023-05-02T06:05:27;11.43;;;4.23;;
7817;SDS011;3954;52.624;9.212;2023-05-02T06:07:55;16.50;;;4.17;;
7817;SDS011;3954;52.624;9.212;2023-05-02T06:10:21;16.77;;;4.37;;
7817;SDS011;3954;52.624;9.212;2023-05-02T06:12:47;13.53;;;4.20;;
7817;SDS011;3954;52.624;9.212;2023-05-02T06:15:13;14.33;;;3.97;;
7817;SDS011;3954;52.624;9.212;2023-05-02T06:17:39;18.03;;;4.67;;
7817;SDS011;3954;52.624;9.212;2023-05-02T06:20:07;13.47;;;4.53;;
7817;SDS011;3954;52.624;9.212;2023-05-02T06:22:33;17.23;;;4.50;;
7817;SDS011;3954;52.624;9.212;2023-05-02T06:24:59;17.57;;;5.13;;
7817;SDS011;3954;52.624;9.212;2023-05-02T06:27:25;19.50;;;3.70;;
7817;SDS011;3954;52.624;9.212;2023-05-02T06:29:51;15.40;;;4.03;;
7817;SDS011;3954;52.624;9.212;2023-05-02T06:32:17;16.07;;;4.87;;
7817;SDS011;3954;52.624;9.212;2023-05-02T06:34:43;8.50;;;3.37;;
7817;SDS011;3954;52.624;9.212;2023-05-02T06:37:10;12.30;;;3.60;;
7817;SDS011;3954;52.624;9.212;2023-05-02T06:39:36;9.77;;;4.13;;
7817;SDS011;3954;52.624;9.212;2023-05-02T06:42:02;15.97;;;4.10;;
7817;SDS011;3954;52.624;9.212;2023-05-02T06:44:28;16.50;;;4.10;;
7817;SDS011;3954;52.624;9.212;2023-05-02T06:46:54;21.13;;;4.40;;
7817;SDS011;3954;52.624;9.212;2023-05-02T06:49:21;15.70;;;3.97;;
7817;SDS011;3954;52.624;9.212;2023-05-02T06:51:46;18.70;;;4.47;;
7817;SDS011;3954;52.624;9.212;2023-05-02T06:54:14;13.70;;;3.83;;
7817;SDS011;3954;52.624;9.212;2023-05-02T06:56:40;12.90;;;3.97;;
7817;SDS011;3954;52.624;9.212;2023-05-02T06:59:06;10.73;;;3.50;;
7817;SDS011;3954;52.624;9.212;2023-05-02T07:01:32;15.30;;;4.10;;
7817;SDS011;3954;52.624;9.212;2023-05-02T07:03:59;12.50;;;3.50;;
7817;SDS011;3954;52.624;9.212;2023-05-02T07:06:25;7.17;;;3.00;;
7817;SDS011;3954;52.624;9.212;2023-05-02T07:08:51;10.80;;;3.60;;
7817;SDS011;3954;52.624;9.212;2023-05-02T07:11:19;13.13;;;3.80;;
7817;SDS011;3954;52.624;9.212;2023-05-02T07:13:47;11.80;;;3.83;;
7817;SDS011;3954;52.624;9.212;2023-05-02T07:16:13;7.87;;;3.57;;
7817;SDS011;3954;52.624;9.212;2023-05-02T07:18:39;8.63;;;3.10;;
7817;SDS011;3954;52.624;9.212;2023-05-02T07:21:06;8.53;;;2.70;;
7817;SDS011;3954;52.624;9.212;2023-05-02T07:23:32;12.03;;;4.63;;
7817;SDS011;3954;52.624;9.212;2023-05-02T07:25:58;11.07;;;3.30;;
7817;SDS011;3954;52.624;9.212;2023-05-02T07:28:26;11.63;;;3.10;;
7817;SDS011;3954;52.624;9.212;2023-05-02T07:30:52;9.43;;;2.97;;
7817;SDS011;3954;52.624;9.212;2023-05-02T07:33:18;7.03;;;3.10;;
7817;SDS011;3954;52.624;9.212;2023-05-02T07:35:44;11.77;;;3.73;;
7817;SDS011;3954;52.624;9.212;2023-05-02T07:38:10;9.73;;;3.00;;
7817;SDS011;3954;52.624;9.212;2023-05-02T07:40:36;8.17;;;3.10;;
7817;SDS011;3954;52.624;9.212;2023-05-02T07:43:02;10.83;;;3.60;;
7817;SDS011;3954;52.624;9.212;2023-05-02T07:45:29;8.47;;;3.30;;
7817;SDS011;3954;52.624;9.212;2023-05-02T07:47:55;9.37;;;2.97;;
7817;SDS011;3954;52.624;9.212;2023-05-02T07:50:21;7.13;;;2.80;;
7817;SDS011;3954;52.624;9.212;2023-05-02T07:52:47;8.93;;;3.13;;
7817;SDS011;3954;52.624;9.212;2023-05-02T07:55:13;5.83;;;2.80;;
7817;SDS011;3954;52.624;9.212;2023-05-02T07:57:39;8.00;;;2.50;;
7817;SDS011;3954;52.624;9.212;2023-05-02T08:00:06;9.83;;;3.13;;
7817;SDS011;3954;52.624;9.212;2023-05-02T08:02:35;8.03;;;2.47;;
7817;SDS011;3954;52.624;9.212;2023-05-02T08:05:01;9.10;;;3.30;;
7817;SDS011;3954;52.624;9.212;2023-05-02T08:07:27;6.57;;;2.83;;
7817;SDS011;3954;52.624;9.212;2023-05-02T08:09:53;6.00;;;2.63;;
7817;SDS011;3954;52.624;9.212;2023-05-02T08:12:19;9.50;;;3.00;;
7817;SDS011;3954;52.624;9.212;2023-05-02T08:14:45;5.20;;;2.90;;
7817;SDS011;3954;52.624;9.212;2023-05-02T08:17:11;7.40;;;3.30;;
7817;SDS011;3954;52.624;9.212;2023-05-02T08:19:38;8.40;;;3.07;;
7817;SDS011;3954;52.624;9.212;2023-05-02T08:22:04;9.27;;;3.00;;
7817;SDS011;3954;52.624;9.212;2023-05-02T08:24:31;8.43;;;3.20;;
7817;SDS011;3954;52.624;9.212;2023-05-02T08:26:58;6.07;;;3.00;;
7817;SDS011;3954;52.624;9.212;2023-05-02T08:29:24;6.83;;;2.50;;
7817;SDS011;3954;52.624;9.212;2023-05-02T08:31:50;10.43;;;3.63;;
7817;SDS011;3954;52.624;9.212;2023-05-02T08:34:16;6.33;;;2.60;;
7817;SDS011;3954;52.624;9.212;2023-05-02T08:36:43;10.23;;;3.20;;
7817;SDS011;3954;52.624;9.212;2023-05-02T08:39:09;6.30;;;3.00;;
7817;SDS011;3954;52.624;9.212;2023-05-02T08:41:36;6.40;;;2.60;;
7817;SDS011;3954;52.624;9.212;2023-05-02T08:44:02;5.50;;;2.10;;
7817;SDS011;3954;52.624;9.212;2023-05-02T08:46:28;4.47;;;2.30;;
7817;SDS011;3954;52.624;9.212;2023-05-02T08:48:55;5.63;;;1.97;;
7817;SDS011;3954;52.624;9.212;2023-05-02T08:51:23;10.20;;;2.70;;
7817;SDS011;3954;52.624;9.212;2023-05-02T08:53:50;5.53;;;2.43;;
7817;SDS011;3954;52.624;9.212;2023-05-02T08:56:17;8.40;;;2.47;;
7817;SDS011;3954;52.624;9.212;2023-05-02T08:58:42;5.43;;;2.37;;
7817;SDS011;3954;52.624;9.212;2023-05-02T09:01:09;5.70;;;2.80;;
7817;SDS011;3954;52.624;9.212;2023-05-02T09:03:36;5.47;;;2.33;;
7817;SDS011;3954;52.624;9.212;2023-05-02T09:06:03;6.20;;;2.63;;
7817;SDS011;3954;52.624;9.212;2023-05-02T09:08:30;6.20;;;2.77;;
7817;SDS011;3954;52.624;9.212;2023-05-02T09:10:57;5.70;;;2.40;;
7817;SDS011;3954;52.624;9.212;2023-05-02T09:13:26;5.20;;;2.57;;
7817;SDS011;3954;52.624;9.212;2023-05-02T09:15:56;7.77;;;2.57;;
7817;SDS011;3954;52.624;9.212;2023-05-02T09:18:22;7.93;;;3.50;;
7817;SDS011;3954;52.624;9.212;2023-05-02T09:20:49;9.23;;;3.77;;
7817;SDS011;3954;52.624;9.212;2023-05-02T09:23:15;7.90;;;3.60;;
7817;SDS011;3954;52.624;9.212;2023-05-02T09:25:41;7.63;;;3.97;;
7817;SDS011;3954;52.624;9.212;2023-05-02T09:28:09;9.30;;;3.50;;
7817;SDS011;3954;52.624;9.212;2023-05-02T09:30:35;8.53;;;3.80;;
7817;SDS011;3954;52.624;9.212;2023-05-02T09:33:01;8.27;;;3.80;;
7817;SDS011;3954;52.624;9.212;2023-05-02T09:35:27;6.70;;;4.23;;
7817;SDS011;3954;52.624;9.212;2023-05-02T09:37:53;6.70;;;4.20;;
7817;SDS011;3954;52.624;9.212;2023-05-02T09:40:19;9.87;;;4.63;;
7817;SDS011;3954;52.624;9.212;2023-05-02T09:42:45;12.43;;;4.63;;
7817;SDS011;3954;52.624;9.212;2023-05-02T09:45:22;7.97;;;4.00;;
7817;SDS011;3954;52.624;9.212;2023-05-02T09:47:49;7.20;;;4.30;;
7817;SDS011;3954;52.624;9.212;2023-05-02T09:53:03;6.63;;;3.50;;
7817;SDS011;3954;52.624;9.212;2023-05-02T09:55:29;7.27;;;3.57;;
7817;SDS011;3954;52.624;9.212;2023-05-02T09:57:55;7.07;;;3.83;;
7817;SDS011;3954;52.624;9.212;2023-05-02T10:00:23;8.40;;;3.97;;
7817;SDS011;3954;52.624;9.212;2023-05-02T10:03:02;7.33;;;3.13;;
7817;SDS011;3954;52.624;9.212;2023-05-02T10:05:31;4.93;;;2.50;;
7817;SDS011;3954;52.624;9.212;2023-05-02T10:07:57;6.13;;;2.80;;
7817;SDS011;3954;52.624;9.212;2023-05-02T10:10:24;7.83;;;3.03;;
7817;SDS011;3954;52.624;9.212;2023-05-02T10:12:50;6.03;;;2.97;;
7817;SDS011;3954;52.624;9.212;2023-05-02T10:15:18;6.50;;;2.67;;
7817;SDS011;3954;52.624;9.212;2023-05-02T10:17:47;7.43;;;2.73;;
7817;SDS011;3954;52.624;9.212;2023-05-02T10:20:17;10.60;;;3.50;;
7817;SDS011;3954;52.624;9.212;2023-05-02T10:22:46;5.10;;;2.60;;
7817;SDS011;3954;52.624;9.212;2023-05-02T10:25:14;5.73;;;2.87;;
7817;SDS011;3954;52.624;9.212;2023-05-02T10:27:40;7.20;;;3.00;;
7817;SDS011;3954;52.624;9.212;2023-05-02T10:30:07;6.90;;;2.77;;
7817;SDS011;3954;52.624;9.212;2023-05-02T10:32:34;8.10;;;3.20;;
7817;SDS011;3954;52.624;9.212;2023-05-02T10:35:03;6.00;;;2.23;;
7817;SDS011;3954;52.624;9.212;2023-05-02T10:37:29;6.13;;;2.10;;
7817;SDS011;3954;52.624;9.212;2023-05-02T10:39:57;5.37;;;2.33;;
7817;SDS011;3954;52.624;9.212;2023-05-02T10:42:24;4.63;;;2.63;;
7817;SDS011;3954;52.624;9.212;2023-05-02T10:44:50;3.53;;;2.40;;
7817;SDS011;3954;52.624;9.212;2023-05-02T10:47:17;7.57;;;2.60;;
7817;SDS011;3954;52.624;9.212;2023-05-02T10:49:50;7.73;;;2.80;;
7817;SDS011;3954;52.624;9.212;2023-05-02T10:52:25;7.33;;;2.57;;
7817;SDS011;3954;52.624;9.212;2023-05-02T10:57:33;4.80;;;2.50;;
7817;SDS011;3954;52.624;9.212;2023-05-02T11:00:11;5.03;;;2.40;;
7817;SDS011;3954;52.624;9.212;2023-05-02T11:02:45;5.30;;;2.53;;
7817;SDS011;3954;52.624;9.212;2023-05-02T11:05:12;4.77;;;2.43;;
7817;SDS011;3954;52.624;9.212;2023-05-02T11:07:39;5.53;;;2.20;;
7817;SDS011;3954;52.624;9.212;2023-05-02T11:10:24;3.27;;;2.10;;
7817;SDS011;3954;52.624;9.212;2023-05-02T11:12:51;4.73;;;2.40;;
7817;SDS011;3954;52.624;9.212;2023-05-02T11:17:58;4.23;;;2.53;;
7817;SDS011;3954;52.624;9.212;2023-05-02T11:20:25;6.70;;;2.37;;
7817;SDS011;3954;52.624;9.212;2023-05-02T11:22:53;3.93;;;2.10;;
7817;SDS011;3954;52.624;9.212;2023-05-02T11:25:30;3.07;;;2.10;;
7817;SDS011;3954;52.624;9.212;2023-05-02T11:27:56;4.60;;;2.13;;
7817;SDS011;3954;52.624;9.212;2023-05-02T11:30:35;3.90;;;1.80;;
7817;SDS011;3954;52.624;9.212;2023-05-02T11:33:11;2.73;;;2.00;;
7817;SDS011;3954;52.624;9.212;2023-05-02T11:35:40;4.53;;;1.90;;
7817;SDS011;3954;52.624;9.212;2023-05-02T11:38:09;3.83;;;2.00;;
7817;SDS011;3954;52.624;9.212;2023-05-02T11:40:35;2.93;;;1.90;;
7817;SDS011;3954;52.624;9.212;2023-05-02T11:43:11;4.87;;;2.17;;
7817;SDS011;3954;52.624;9.212;2023-05-02T11:45:37;3.73;;;1.80;;
7817;SDS011;3954;52.624;9.212;2023-05-02T11:48:03;3.90;;;1.80;;
7817;SDS011;3954;52.624;9.212;2023-05-02T11:50:30;1.90;;;1.70;;
7817;SDS011;3954;52.624;9.212;2023-05-02T11:52:56;1.93;;;1.50;;
7817;SDS011;3954;52.624;9.212;2023-05-02T11:55:24;2.87;;;1.63;;
7817;SDS011;3954;52.624;9.212;2023-05-02T11:57:51;5.90;;;2.07;;
7817;SDS011;3954;52.624;9.212;2023-05-02T12:00:17;3.30;;;1.90;;
7817;SDS011;3954;52.624;9.212;2023-05-02T12:02:44;2.40;;;1.57;;
7817;SDS011;3954;52.624;9.212;2023-05-02T12:05:11;3.20;;;1.90;;
7817;SDS011;3954;52.624;9.212;2023-05-02T12:07:37;2.80;;;1.67;;
7817;SDS011;3954;52.624;9.212;2023-05-02T12:10:04;2.63;;;1.93;;
7817;SDS011;3954;52.624;9.212;2023-05-02T12:12:31;2.97;;;1.70;;
7817;SDS011;3954;52.624;9.212;2023-05-02T12:14:57;2.20;;;1.77;;
7817;SDS011;3954;52.624;9.212;2023-05-02T12:17:23;3.37;;;1.40;;
7817;SDS011;3954;52.624;9.212;2023-05-02T12:19:50;2.77;;;1.90;;
7817;SDS011;3954;52.624;9.212;2023-05-02T12:22:16;2.40;;;1.87;;
7817;SDS011;3954;52.624;9.212;2023-05-02T12:24:42;2.47;;;1.57;;
7817;SDS011;3954;52.624;9.212;2023-05-02T12:27:09;3.07;;;1.90;;
7817;SDS011;3954;52.624;9.212;2023-05-02T12:29:40;3.03;;;2.30;;
7817;SDS011;3954;52.624;9.212;2023-05-02T12:32:06;4.10;;;2.20;;
7817;SDS011;3954;52.624;9.212;2023-05-02T12:34:32;2.83;;;1.90;;
7817;SDS011;3954;52.624;9.212;2023-05-02T12:36:58;3.63;;;2.33;;
7817;SDS011;3954;52.624;9.212;2023-05-02T12:39:33;3.37;;;2.13;;
7817;SDS011;3954;52.624;9.212;2023-05-02T12:41:59;5.03;;;2.13;;
7817;SDS011;3954;52.624;9.212;2023-05-02T12:44:34;3.67;;;1.90;;
7817;SDS011;3954;52.624;9.212;2023-05-02T12:47:02;2.80;;;2.00;;
7817;SDS011;3954;52.624;9.212;2023-05-02T12:49:28;2.20;;;1.77;;
7817;SDS011;3954;52.624;9.212;2023-05-02T12:51:54;4.03;;;1.80;;
7817;SDS011;3954;52.624;9.212;2023-05-02T12:54:20;2.00;;;1.60;;
7817;SDS011;3954;52.624;9.212;2023-05-02T12:56:46;2.53;;;1.70;;
7817;SDS011;3954;52.624;9.212;2023-05-02T12:59:24;2.53;;;1.50;;
7817;SDS011;3954;52.624;9.212;2023-05-02T13:01:50;5.03;;;1.67;;
7817;SDS011;3954;52.624;9.212;2023-05-02T13:04:18;2.73;;;1.30;;
7817;SDS011;3954;52.624;9.212;2023-05-02T13:06:44;2.07;;;1.50;;
7817;SDS011;3954;52.624;9.212;2023-05-02T13:09:10;2.47;;;1.40;;
7817;SDS011;3954;52.624;9.212;2023-05-02T13:11:36;3.93;;;1.57;;
7817;SDS011;3954;52.624;9.212;2023-05-02T13:14:03;2.30;;;1.50;;
7817;SDS011;3954;52.624;9.212;2023-05-02T13:16:29;3.50;;;1.60;;
7817;SDS011;3954;52.624;9.212;2023-05-02T13:18:57;4.07;;;1.80;;
7817;SDS011;3954;52.624;9.212;2023-05-02T13:21:24;2.90;;;1.37;;
7817;SDS011;3954;52.624;9.212;2023-05-02T13:23:50;3.67;;;1.80;;
7817;SDS011;3954;52.624;9.212;2023-05-02T13:26:19;2.10;;;1.70;;
7817;SDS011;3954;52.624;9.212;2023-05-02T13:28:45;4.43;;;2.00;;
7817;SDS011;3954;52.624;9.212;2023-05-02T13:31:11;2.93;;;1.63;;
7817;SDS011;3954;52.624;9.212;2023-05-02T13:33:37;3.50;;;1.50;;
7817;SDS011;3954;52.624;9.212;2023-05-02T13:36:03;2.47;;;1.70;;
7817;SDS011;3954;52.624;9.212;2023-05-02T13:38:30;3.17;;;1.70;;
7817;SDS011;3954;52.624;9.212;2023-05-02T13:40:57;5.03;;;1.67;;
7817;SDS011;3954;52.624;9.212;2023-05-02T13:43:23;2.90;;;2.00;;
7817;SDS011;3954;52.624;9.212;2023-05-02T13:45:49;2.40;;;1.70;;
7817;SDS011;3954;52.624;9.212;2023-05-02T13:48:16;2.83;;;1.60;;
7817;SDS011;3954;52.624;9.212;2023-05-02T13:50:42;2.93;;;1.70;;
7817;SDS011;3954;52.624;9.212;2023-05-02T13:53:08;2.73;;;2.00;;
7817;SDS011;3954;52.624;9.212;2023-05-02T13:55:35;2.80;;;1.67;;
7817;SDS011;3954;52.624;9.212;2023-05-02T13:58:01;8.03;;;2.60;;
7817;SDS011;3954;52.624;9.212;2023-05-02T14:00:27;3.63;;;1.70;;
7817;SDS011;3954;52.624;9.212;2023-05-02T14:02:53;3.07;;;1.83;;
7817;SDS011;3954;52.624;9.212;2023-05-02T14:05:19;3.97;;;1.70;;
7817;SDS011;3954;52.624;9.212;2023-05-02T14:07:45;2.53;;;1.60;;
7817;SDS011;3954;52.624;9.212;2023-05-02T14:10:11;2.40;;;1.23;;
7817;SDS011;3954;52.624;9.212;2023-05-02T14:12:38;3.70;;;1.70;;
7817;SDS011;3954;52.624;9.212;2023-05-02T14:15:05;2.17;;;1.50;;
7817;SDS011;3954;52.624;9.212;2023-05-02T14:17:31;2.33;;;1.67;;
7817;SDS011;3954;52.624;9.212;2023-05-02T14:19:58;2.33;;;1.70;;
7817;SDS011;3954;52.624;9.212;2023-05-02T14:22:24;3.83;;;1.70;;
7817;SDS011;3954;52.624;9.212;2023-05-02T14:24:50;4.20;;;2.10;;
7817;SDS011;3954;52.624;9.212;2023-05-02T14:27:16;4.73;;;1.80;;
7817;SDS011;3954;52.624;9.212;2023-05-02T14:29:43;2.67;;;1.47;;
7817;SDS011;3954;52.624;9.212;2023-05-02T14:32:09;2.40;;;1.73;;
7817;SDS011;3954;52.624;9.212;2023-05-02T14:34:35;3.63;;;1.60;;
7817;SDS011;3954;52.624;9.212;2023-05-02T14:37:02;3.57;;;1.50;;
7817;SDS011;3954;52.624;9.212;2023-05-02T14:39:28;2.23;;;1.53;;
7817;SDS011;3954;52.624;9.212;2023-05-02T14:41:54;2.67;;;1.90;;
7817;SDS011;3954;52.624;9.212;2023-05-02T14:44:20;2.93;;;1.80;;
7817;SDS011;3954;52.624;9.212;2023-05-02T14:46:47;4.07;;;1.80;;
7817;SDS011;3954;52.624;9.212;2023-05-02T14:49:13;2.53;;;1.70;;
7817;SDS011;3954;52.624;9.212;2023-05-02T14:51:39;2.57;;;1.40;;
7817;SDS011;3954;52.624;9.212;2023-05-02T14:54:06;3.47;;;1.63;;
7817;SDS011;3954;52.624;9.212;2023-05-02T14:56:32;2.37;;;1.50;;
7817;SDS011;3954;52.624;9.212;2023-05-02T14:58:58;3.30;;;1.70;;
7817;SDS011;3954;52.624;9.212;2023-05-02T15:01:25;2.83;;;1.60;;
7817;SDS011;3954;52.624;9.212;2023-05-02T15:03:52;2.77;;;1.70;;
7817;SDS011;3954;52.624;9.212;2023-05-02T15:06:19;2.60;;;1.50;;
7817;SDS011;3954;52.624;9.212;2023-05-02T15:08:46;3.40;;;1.60;;
7817;SDS011;3954;52.624;9.212;2023-05-02T15:11:12;2.97;;;1.60;;
7817;SDS011;3954;52.624;9.212;2023-05-02T15:13:38;2.43;;;1.50;;
7817;SDS011;3954;52.624;9.212;2023-05-02T15:16:04;5.13;;;1.90;;